Time;durP1;ratioP1;P1;durP2;ratioP2;P2;SDS_P1;SDS_P2;PMS_P1;PMS_P2;Temp;Humidity;BMP_temperature;BMP_pressure;BME280_temperature;BME280_humidity;BME280_pressure;Samples;Min_cycle;Max_cycle;Signal;HPM_P1;HPM_P2
2021/06/19 00:00:10;;;;;;;10.85;8.70;;;;;;;;;;5123307;27;20026;-85
2021/06/19 00:02:36;;;;;;;15.88;8.88;;;;;;;;;;5120674;27;20090;-86
2021/06/19 00:05:01;;;;;;;14.40;9.52;;;;;;;;;;5121059;27;20055;-85
2021/06/19 00:07:27;;;;;;;10.73;8.60;;;;;;;;;;5120154;27;20027;-86
2021/06/19 00:09:53;;;;;;;9.93;8.65;;;;;;;;;;5130349;27;20053;-86
2021/06/19 00:12:19;;;;;;;11.77;8.68;;;;;;;;;;5125798;27;20059;-85
2021/06/19 00:14:46;;;;;;;11.40;8.40;;;;;;;;;;5129740;27;20039;-86
2021/06/19 00:17:12;;;;;;;9.40;8.40;;;;;;;;;;5106624;28;20060;-85
2021/06/19 00:19:38;;;;;;;11.25;8.25;;;;;;;;;;5120078;27;20076;-85
2021/06/19 00:22:05;;;;;;;14.98;9.00;;;;;;;;;;5108705;27;20023;-86
2021/06/19 00:24:38;;;;;;;9.83;8.67;;;;;;;;;;5124127;27;20032;-85
2021/06/19 00:27:04;;;;;;;11.88;8.65;;;;;;;;;;5117341;27;20038;-86
2021/06/19 00:29:31;;;;;;;13.47;8.83;;;;;;;;;;5119538;27;20019;-86
2021/06/19 00:31:57;;;;;;;14.03;9.07;;;;;;;;;;5124112;27;20288;-85
2021/06/19 00:34:23;;;;;;;11.30;8.75;;;;;;;;;;5116512;27;20035;-88
2021/06/19 00:36:49;;;;;;;10.32;8.98;;;;;;;;;;5131409;27;20031;-86
2021/06/19 00:39:15;;;;;;;9.98;8.65;;;;;;;;;;5129454;27;20390;-87
2021/06/19 00:41:41;;;;;;;10.00;8.18;;;;;;;;;;5123101;27;20019;-86
2021/06/19 00:44:15;;;;;;;13.25;8.73;;;;;;;;;;5112187;28;20063;-86
2021/06/19 00:46:41;;;;;;;9.80;8.70;;;;;;;;;;5128130;27;20181;-86
2021/06/19 00:49:07;;;;;;;10.00;8.27;;;;;;;;;;5121122;27;20610;-87
2021/06/19 00:51:32;;;;;;;9.80;8.50;;;;;;;;;;5124925;27;20031;-87
2021/06/19 00:53:58;;;;;;;10.02;8.45;;;;;;;;;;5120502;27;20054;-86
2021/06/19 00:56:24;;;;;;;11.45;8.63;;;;;;;;;;5115946;27;20065;-86
2021/06/19 00:58:50;;;;;;;12.63;8.60;;;;;;;;;;5129613;27;20027;-87
2021/06/19 01:01:16;;;;;;;11.98;9.13;;;;;;;;;;5126070;27;20023;-85
2021/06/19 01:03:42;;;;;;;10.85;9.00;;;;;;;;;;5115961;27;20091;-86
2021/06/19 01:06:08;;;;;;;9.88;8.88;;;;;;;;;;5133188;27;20019;-88
2021/06/19 01:08:34;;;;;;;10.95;9.63;;;;;;;;;;5124659;27;20461;-85
2021/06/19 01:11:00;;;;;;;13.52;9.57;;;;;;;;;;5119727;27;20020;-87
2021/06/19 01:13:26;;;;;;;15.75;10.57;;;;;;;;;;5116503;27;20549;-86
2021/06/19 01:15:53;;;;;;;14.68;10.25;;;;;;;;;;5123301;27;20106;-86
2021/06/19 01:18:19;;;;;;;11.90;10.25;;;;;;;;;;5118985;27;20484;-87
2021/06/19 01:20:45;;;;;;;12.68;10.32;;;;;;;;;;5117944;27;20413;-87
2021/06/19 01:23:11;;;;;;;13.85;9.80;;;;;;;;;;5116707;27;20099;-86
2021/06/19 01:25:38;;;;;;;14.77;9.95;;;;;;;;;;5125039;27;20476;-85
2021/06/19 01:28:07;;;;;;;11.07;9.73;;;;;;;;;;5127663;27;20326;-85
2021/06/19 01:30:34;;;;;;;10.10;9.07;;;;;;;;;;5118773;27;20072;-85
2021/06/19 01:33:00;;;;;;;11.43;9.35;;;;;;;;;;5126333;27;20141;-86
2021/06/19 01:35:26;;;;;;;12.75;9.43;;;;;;;;;;5112764;28;20082;-86
2021/06/19 01:37:53;;;;;;;12.27;9.30;;;;;;;;;;5126547;28;20058;-86
2021/06/19 01:40:20;;;;;;;12.23;9.93;;;;;;;;;;5127239;28;20062;-86
2021/06/19 01:42:47;;;;;;;10.40;9.35;;;;;;;;;;5117873;28;20043;-86
2021/06/19 01:45:18;;;;;;;9.95;8.68;;;;;;;;;;5114345;28;20034;-84
2021/06/19 01:47:44;;;;;;;10.52;9.00;;;;;;;;;;5111302;28;20073;-86
2021/06/19 01:50:12;;;;;;;13.10;9.90;;;;;;;;;;5120331;28;20046;-86
2021/06/19 01:52:39;;;;;;;;;;;;;;;;;;5125355;28;20043;-85
2021/06/19 01:55:05;;;;;;;10.18;8.82;;;;;;;;;;5120977;28;19912;-86
2021/06/19 01:57:31;;;;;;;10.38;8.65;;;;;;;;;;5119020;28;20031;-86
2021/06/19 02:00:05;;;;;;;11.23;9.68;;;;;;;;;;5118384;28;20058;-84
2021/06/19 02:02:32;;;;;;;11.07;9.85;;;;;;;;;;5106363;28;20031;-87
2021/06/19 02:04:57;;;;;;;10.55;9.40;;;;;;;;;;5101162;28;20027;-86
2021/06/19 02:07:23;;;;;;;10.73;9.52;;;;;;;;;;5120320;28;20473;-86
2021/06/19 02:09:49;;;;;;;11.32;9.65;;;;;;;;;;5111440;28;20058;-86
2021/06/19 02:12:17;;;;;;;12.70;9.80;;;;;;;;;;5113872;28;20497;-86
2021/06/19 02:14:43;;;;;;;11.70;9.25;;;;;;;;;;5119121;28;20024;-85
2021/06/19 02:17:09;;;;;;;12.60;8.57;;;;;;;;;;5118908;28;20117;-86
2021/06/19 02:19:35;;;;;;;10.25;9.15;;;;;;;;;;5103145;28;20433;-86
2021/06/19 02:22:01;;;;;;;11.43;9.20;;;;;;;;;;5117715;28;20039;-86
2021/06/19 02:24:27;;;;;;;10.23;8.90;;;;;;;;;;5118697;28;20020;-86
2021/06/19 02:27:05;;;;;;;9.82;8.88;;;;;;;;;;5112682;28;20036;-86
2021/06/19 02:29:32;;;;;;;10.13;8.77;;;;;;;;;;5124302;28;20023;-85
2021/06/19 02:31:58;;;;;;;13.15;9.23;;;;;;;;;;5118208;28;20039;-86
2021/06/19 02:34:24;;;;;;;14.05;9.18;;;;;;;;;;5100574;28;20435;-86
2021/06/19 02:36:50;;;;;;;12.85;9.25;;;;;;;;;;5119084;28;20030;-85
2021/06/19 02:39:16;;;;;;;13.30;9.77;;;;;;;;;;5110488;28;20038;-86
2021/06/19 02:41:42;;;;;;;10.80;9.70;;;;;;;;;;5114257;28;20037;-85
2021/06/19 02:44:08;;;;;;;12.88;8.93;;;;;;;;;;5096450;28;20027;-86
2021/06/19 02:46:34;;;;;;;11.55;9.32;;;;;;;;;;5122461;28;20422;-85
2021/06/19 02:49:00;;;;;;;14.05;9.70;;;;;;;;;;5099729;28;20023;-85
2021/06/19 02:51:26;;;;;;;11.43;10.00;;;;;;;;;;5113615;27;20038;-84
2021/06/19 02:53:51;;;;;;;11.13;9.68;;;;;;;;;;5094561;28;20044;-85
2021/06/19 02:56:17;;;;;;;10.45;9.13;;;;;;;;;;5116662;27;20026;-85
2021/06/19 02:58:43;;;;;;;11.60;9.07;;;;;;;;;;5122225;27;20509;-85
2021/06/19 03:01:09;;;;;;;13.18;9.02;;;;;;;;;;5128320;27;20019;-85
2021/06/19 03:03:36;;;;;;;13.15;10.18;;;;;;;;;;5123392;27;20407;-85
2021/06/19 03:06:02;;;;;;;10.20;9.20;;;;;;;;;;5140439;27;20039;-85
2021/06/19 03:08:31;;;;;;;11.00;9.10;;;;;;;;;;5153377;27;20019;-85
2021/06/19 03:10:57;;;;;;;11.95;9.20;;;;;;;;;;5104992;28;20024;-84
2021/06/19 03:13:23;;;;;;;10.98;9.38;;;;;;;;;;5113756;27;20032;-84
2021/06/19 03:15:50;;;;;;;10.45;9.43;;;;;;;;;;5117375;27;20449;-85
2021/06/19 03:18:16;;;;;;;10.57;9.57;;;;;;;;;;5126999;27;20373;-86
2021/06/19 03:20:42;;;;;;;10.70;9.70;;;;;;;;;;5121628;27;20034;-86
2021/06/19 03:23:08;;;;;;;13.50;10.20;;;;;;;;;;5115410;27;20103;-86
2021/06/19 03:25:35;;;;;;;11.00;9.48;;;;;;;;;;5113461;27;20100;-85
2021/06/19 03:28:03;;;;;;;11.40;9.55;;;;;;;;;;5112742;27;20481;-87
2021/06/19 03:30:29;;;;;;;10.90;9.85;;;;;;;;;;5113553;27;20064;-85
2021/06/19 03:32:55;;;;;;;11.27;9.70;;;;;;;;;;5113852;27;20130;-85
2021/06/19 03:35:22;;;;;;;12.20;9.68;;;;;;;;;;5129941;27;20192;-85
2021/06/19 03:37:48;;;;;;;10.43;9.27;;;;;;;;;;5121069;27;20028;-84
2021/06/19 03:40:15;;;;;;;13.10;8.60;;;;;;;;;;5120618;27;20465;-86
2021/06/19 03:42:41;;;;;;;10.55;9.07;;;;;;;;;;5125752;27;20505;-88
2021/06/19 03:45:08;;;;;;;9.77;8.70;;;;;;;;;;5126317;27;20496;-87
2021/06/19 03:47:34;;;;;;;9.20;8.13;;;;;;;;;;5115266;27;20039;-87
2021/06/19 03:50:00;;;;;;;9.05;8.18;;;;;;;;;;5123269;27;20027;-86
2021/06/19 03:52:26;;;;;;;9.20;8.30;;;;;;;;;;5115054;27;20057;-84
2021/06/19 03:54:53;;;;;;;9.07;8.18;;;;;;;;;;5114899;27;20019;-87
2021/06/19 03:57:23;;;;;;;9.53;8.03;;;;;;;;;;5128736;27;20054;-86
2021/06/19 03:59:49;;;;;;;9.40;8.40;;;;;;;;;;5121088;27;20019;-84
2021/06/19 04:02:15;;;;;;;12.48;8.73;;;;;;;;;;5112366;27;20442;-87
2021/06/19 04:04:41;;;;;;;10.90;8.43;;;;;;;;;;5113632;27;20028;-88
2021/06/19 04:07:07;;;;;;;11.13;8.50;;;;;;;;;;5112376;27;20035;-85
2021/06/19 04:09:33;;;;;;;9.15;8.25;;;;;;;;;;5128484;27;20106;-85
2021/06/19 04:11:59;;;;;;;8.98;7.88;;;;;;;;;;5114086;27;20427;-85
2021/06/19 04:14:25;;;;;;;9.73;8.30;;;;;;;;;;5123282;27;20114;-85
2021/06/19 04:16:51;;;;;;;9.98;8.98;;;;;;;;;;5122775;27;20031;-86
2021/06/19 04:19:17;;;;;;;10.18;8.60;;;;;;;;;;5131693;27;20087;-85
2021/06/19 04:21:43;;;;;;;9.63;8.43;;;;;;;;;;5123372;27;20047;-86
2021/06/19 04:24:09;;;;;;;10.10;9.10;;;;;;;;;;5100992;28;20024;-87
2021/06/19 04:26:35;;;;;;;11.73;9.65;;;;;;;;;;5113129;27;20022;-85
2021/06/19 04:29:01;;;;;;;9.18;8.23;;;;;;;;;;5112816;27;20047;-86
2021/06/19 04:31:27;;;;;;;9.77;8.80;;;;;;;;;;5126623;27;20556;-85
2021/06/19 04:33:53;;;;;;;9.02;8.13;;;;;;;;;;5100047;27;20065;-85
2021/06/19 04:36:19;;;;;;;10.02;8.95;;;;;;;;;;5140343;27;20008;-85
2021/06/19 04:38:45;;;;;;;8.85;7.90;;;;;;;;;;5130651;27;20043;-85
2021/06/19 04:41:23;;;;;;;8.80;7.90;;;;;;;;;;5112626;27;20362;-86
2021/06/19 04:46:24;;;;;;;9.20;8.25;;;;;;;;;;5122234;27;20087;-88
2021/06/19 04:48:52;;;;;;;10.07;7.97;;;;;;;;;;5112594;28;20477;-86
2021/06/19 04:51:18;;;;;;;9.25;8.25;;;;;;;;;;5131588;27;20023;-82
2021/06/19 04:53:44;;;;;;;8.73;7.75;;;;;;;;;;5120491;27;20096;-82
2021/06/19 04:56:10;;;;;;;8.57;7.70;;;;;;;;;;5103566;28;20024;-83
2021/06/19 04:58:37;;;;;;;9.15;8.25;;;;;;;;;;5110448;27;20059;-82
2021/06/19 05:01:03;;;;;;;8.23;7.10;;;;;;;;;;5116021;27;20024;-83
2021/06/19 05:03:29;;;;;;;8.70;7.80;;;;;;;;;;5110892;27;20027;-84
2021/06/19 05:05:55;;;;;;;11.10;7.88;;;;;;;;;;5121058;27;20042;-84
2021/06/19 05:08:21;;;;;;;9.27;7.57;;;;;;;;;;5104796;27;20083;-84
2021/06/19 05:10:48;;;;;;;9.45;8.07;;;;;;;;;;5127326;27;20044;-84
2021/06/19 05:13:14;;;;;;;9.43;8.07;;;;;;;;;;5118570;27;20027;-85
2021/06/19 05:15:40;;;;;;;9.70;7.47;;;;;;;;;;5129464;27;20034;-83
2021/06/19 05:18:06;;;;;;;10.48;7.90;;;;;;;;;;5104901;27;20038;-84
2021/06/19 05:20:37;;;;;;;9.88;7.70;;;;;;;;;;5104233;27;20039;-83
2021/06/19 05:23:08;;;;;;;9.98;7.63;;;;;;;;;;5103363;28;20023;-81
2021/06/19 05:25:36;;;;;;;15.32;8.20;;;;;;;;;;5100678;28;20028;-83
2021/06/19 05:28:02;;;;;;;9.35;7.63;;;;;;;;;;5122715;27;20020;-83
2021/06/19 05:30:28;;;;;;;10.15;8.18;;;;;;;;;;5104501;27;20361;-84
2021/06/19 05:32:54;;;;;;;8.38;7.63;;;;;;;;;;5120528;27;20079;-83
2021/06/19 05:35:20;;;;;;;11.00;7.35;;;;;;;;;;5116747;27;20034;-84
2021/06/19 05:37:46;;;;;;;12.10;7.50;;;;;;;;;;5121174;27;20034;-85
2021/06/19 05:40:12;;;;;;;8.50;7.70;;;;;;;;;;5111221;28;20377;-84
2021/06/19 05:42:39;;;;;;;8.10;6.93;;;;;;;;;;5118477;28;20122;-84
2021/06/19 05:45:06;;;;;;;8.50;7.07;;;;;;;;;;5112097;28;20032;-86
2021/06/19 05:47:32;;;;;;;;;;;;;;;;;;5129474;28;20419;-83
2021/06/19 05:49:57;;;;;;;7.85;7.15;;;;;;;;;;5122328;28;19911;-83
2021/06/19 05:52:25;;;;;;;8.57;7.68;;;;;;;;;;5113853;28;20055;-85
2021/06/19 05:54:51;;;;;;;9.40;7.85;;;;;;;;;;5113423;28;20379;-86
2021/06/19 05:57:17;;;;;;;9.23;7.20;;;;;;;;;;5126529;28;20117;-84
2021/06/19 05:59:43;;;;;;;13.15;7.60;;;;;;;;;;5116477;28;20035;-84
2021/06/19 06:02:09;;;;;;;10.07;7.43;;;;;;;;;;5117981;28;20113;-84
2021/06/19 06:04:35;;;;;;;11.48;7.35;;;;;;;;;;5099200;28;20027;-83
2021/06/19 06:07:02;;;;;;;8.77;7.85;;;;;;;;;;5124430;28;20036;-83
2021/06/19 06:09:28;;;;;;;15.40;13.50;;;;;;;;;;5127623;28;20020;-85
2021/06/19 06:11:54;;;;;;;10.10;7.23;;;;;;;;;;5130357;28;20311;-82
2021/06/19 06:14:20;;;;;;;7.57;6.68;;;;;;;;;;5116740;28;20305;-82
2021/06/19 06:16:46;;;;;;;10.05;7.72;;;;;;;;;;5112859;28;20352;-82
2021/06/19 06:19:14;;;;;;;11.65;7.13;;;;;;;;;;5100185;28;20480;-82
2021/06/19 06:21:40;;;;;;;8.57;7.25;;;;;;;;;;5116048;28;20054;-82
2021/06/19 06:24:06;;;;;;;11.40;7.78;;;;;;;;;;5114773;28;20462;-82
2021/06/19 06:26:32;;;;;;;9.45;8.07;;;;;;;;;;5112869;27;20507;-83
2021/06/19 06:28:59;;;;;;;9.10;8.10;;;;;;;;;;5120130;27;20500;-82
2021/06/19 06:31:25;;;;;;;9.68;7.90;;;;;;;;;;5127825;27;20050;-82
2021/06/19 06:33:51;;;;;;;9.40;7.70;;;;;;;;;;5116674;27;20082;-83
2021/06/19 06:36:17;;;;;;;13.88;7.85;;;;;;;;;;5122838;27;20031;-83
2021/06/19 06:38:43;;;;;;;13.10;7.93;;;;;;;;;;5122955;27;20027;-84
2021/06/19 06:41:09;;;;;;;8.75;7.95;;;;;;;;;;5110088;27;20458;-83
2021/06/19 06:43:35;;;;;;;15.38;8.10;;;;;;;;;;5120524;27;20154;-83
2021/06/19 06:46:01;;;;;;;10.50;8.25;;;;;;;;;;5121955;27;20027;-82
2021/06/19 06:48:29;;;;;;;8.90;7.43;;;;;;;;;;5122656;27;20072;-82
2021/06/19 06:50:55;;;;;;;12.30;8.38;;;;;;;;;;5127599;27;20027;-83
2021/06/19 06:53:21;;;;;;;11.75;7.80;;;;;;;;;;5112586;27;20055;-82
2021/06/19 06:55:47;;;;;;;8.23;7.30;;;;;;;;;;5129027;27;20449;-85
2021/06/19 06:58:13;;;;;;;8.88;7.88;;;;;;;;;;5125719;27;20039;-81
2021/06/19 07:00:39;;;;;;;12.18;7.32;;;;;;;;;;5123013;27;20023;-84
2021/06/19 07:03:05;;;;;;;8.57;7.70;;;;;;;;;;5099726;27;20403;-83
2021/06/19 07:05:31;;;;;;;8.70;7.80;;;;;;;;;;5119655;27;20076;-82
2021/06/19 07:07:57;;;;;;;11.02;7.68;;;;;;;;;;5122425;27;20085;-86
2021/06/19 07:10:23;;;;;;;10.57;8.07;;;;;;;;;;5096719;28;20478;-87
2021/06/19 07:12:49;;;;;;;10.70;7.57;;;;;;;;;;5118772;27;20042;-87
2021/06/19 07:15:16;;;;;;;9.57;7.78;;;;;;;;;;5122949;27;20238;-90
2021/06/19 07:17:42;;;;;;;8.07;7.30;;;;;;;;;;5123940;27;20035;-90
2021/06/19 07:20:09;;;;;;;9.47;7.03;;;;;;;;;;5121873;27;20350;-89
2021/06/19 07:22:36;;;;;;;8.30;7.40;;;;;;;;;;5122675;27;20023;-88
2021/06/19 07:25:02;;;;;;;9.93;7.75;;;;;;;;;;5124447;27;20520;-88
2021/06/19 07:27:29;;;;;;;9.05;7.45;;;;;;;;;;5125527;27;20035;-88
2021/06/19 07:29:55;;;;;;;8.27;6.82;;;;;;;;;;5110792;27;20456;-89
2021/06/19 07:32:21;;;;;;;13.80;7.47;;;;;;;;;;5117728;27;20469;-85
2021/06/19 07:34:47;;;;;;;9.00;7.05;;;;;;;;;;5124104;27;20051;-88
2021/06/19 07:37:13;;;;;;;7.70;6.75;;;;;;;;;;5137778;27;20130;-84
2021/06/19 07:39:39;;;;;;;7.30;6.70;;;;;;;;;;5125683;27;20031;-83
2021/06/19 07:42:06;;;;;;;9.00;6.65;;;;;;;;;;5121488;27;20050;-79
2021/06/19 07:44:32;;;;;;;9.23;6.60;;;;;;;;;;5124844;27;20429;-79
2021/06/19 07:47:00;;;;;;;7.85;6.60;;;;;;;;;;5132150;27;20118;-80
2021/06/19 07:49:27;;;;;;;8.93;6.47;;;;;;;;;;5119751;27;20085;-80
2021/06/19 07:51:53;;;;;;;7.70;6.43;;;;;;;;;;5112413;27;20055;-79
2021/06/19 07:54:19;;;;;;;10.07;7.15;;;;;;;;;;5102131;28;20080;-80
2021/06/19 07:56:47;;;;;;;7.53;6.73;;;;;;;;;;5127827;27;20047;-81
2021/06/19 07:59:13;;;;;;;9.57;6.45;;;;;;;;;;5130623;27;20264;-81
2021/06/19 08:01:39;;;;;;;7.87;6.73;;;;;;;;;;5106109;27;20030;-82
2021/06/19 08:04:05;;;;;;;7.82;6.50;;;;;;;;;;5114228;27;20038;-81
2021/06/19 08:06:31;;;;;;;11.20;6.47;;;;;;;;;;5120629;27;20043;-81
2021/06/19 08:08:57;;;;;;;6.72;6.13;;;;;;;;;;5111220;28;20420;-80
2021/06/19 08:11:23;;;;;;;7.60;6.30;;;;;;;;;;5130747;27;20103;-81
2021/06/19 08:13:49;;;;;;;8.57;6.73;;;;;;;;;;5126111;27;20427;-80
2021/06/19 08:16:17;;;;;;;10.13;6.53;;;;;;;;;;5127909;27;20016;-81
2021/06/19 08:18:44;;;;;;;8.90;6.90;;;;;;;;;;5111183;27;20452;-79
2021/06/19 08:21:10;;;;;;;8.07;6.57;;;;;;;;;;5119769;27;20432;-79
2021/06/19 08:23:36;;;;;;;9.43;6.73;;;;;;;;;;5128322;27;20035;-80
2021/06/19 08:26:02;;;;;;;10.67;6.67;;;;;;;;;;5111106;28;20031;-80
2021/06/19 08:28:30;;;;;;;8.33;7.27;;;;;;;;;;5111244;28;20040;-80
2021/06/19 08:30:56;;;;;;;7.82;6.35;;;;;;;;;;5116605;27;20031;-81
2021/06/19 08:33:22;;;;;;;7.07;6.30;;;;;;;;;;5122082;27;20036;-80
2021/06/19 08:35:48;;;;;;;11.10;7.40;;;;;;;;;;5092768;28;20536;-79
2021/06/19 08:38:14;;;;;;;9.33;7.10;;;;;;;;;;5130022;27;20035;-81
2021/06/19 08:40:40;;;;;;;8.73;7.07;;;;;;;;;;5112490;27;20134;-80
2021/06/19 08:43:06;;;;;;;7.63;6.23;;;;;;;;;;5110648;28;20102;-81
2021/06/19 08:45:33;;;;;;;9.85;6.82;;;;;;;;;;5120361;27;20059;-81
2021/06/19 08:48:00;;;;;;;9.13;6.60;;;;;;;;;;5129980;27;20026;-79
2021/06/19 08:50:26;;;;;;;7.75;6.70;;;;;;;;;;5129877;27;20070;-80
2021/06/19 08:52:52;;;;;;;11.65;7.47;;;;;;;;;;5109143;27;20062;-79
2021/06/19 08:55:18;;;;;;;7.43;6.70;;;;;;;;;;5106532;28;20016;-80
2021/06/19 08:57:45;;;;;;;7.10;6.40;;;;;;;;;;5108650;27;20065;-82
2021/06/19 09:00:11;;;;;;;14.40;9.38;;;;;;;;;;5121149;27;20039;-82
2021/06/19 09:02:37;;;;;;;;;;;;;;;;;;5123756;27;20027;-78
2021/06/19 09:05:08;;;;;;;11.73;9.07;;;;;;;;;;5125108;27;19915;-79
2021/06/19 09:07:35;;;;;;;11.50;7.90;;;;;;;;;;5128175;27;20023;-78
2021/06/19 09:10:20;;;;;;;11.55;8.05;;;;;;;;;;5125427;27;20038;-80
2021/06/19 09:13:06;;;;;;;9.68;8.68;;;;;;;;;;5123492;27;20094;-79
2021/06/19 09:15:33;;;;;;;19.20;13.38;;;;;;;;;;5127436;27;20019;-78
2021/06/19 09:18:18;;;;;;;16.20;8.23;;;;;;;;;;5119807;27;20023;-79
2021/06/19 09:21:01;;;;;;;19.00;12.48;;;;;;;;;;5121574;27;20040;-79
2021/06/19 09:23:34;;;;;;;11.52;7.95;;;;;;;;;;5117246;27;20023;-81
2021/06/19 09:26:19;;;;;;;14.75;10.63;;;;;;;;;;5122152;27;20485;-80
2021/06/19 09:28:55;;;;;;;16.33;12.18;;;;;;;;;;5114594;27;20028;-81
2021/06/19 09:31:37;;;;;;;13.23;11.93;;;;;;;;;;5120674;27;20034;-81
2021/06/19 09:34:13;;;;;;;11.15;10.00;;;;;;;;;;5128280;27;20046;-81
2021/06/19 09:36:51;;;;;;;24.77;13.10;;;;;;;;;;5109153;28;20415;-81
2021/06/19 09:39:19;;;;;;;15.05;11.85;;;;;;;;;;5103625;27;20034;-80
2021/06/19 09:41:46;;;;;;;12.10;10.75;;;;;;;;;;5120979;27;20105;-81
2021/06/19 09:44:12;;;;;;;11.98;9.55;;;;;;;;;;5111107;28;20043;-81
2021/06/19 09:46:39;;;;;;;17.85;13.63;;;;;;;;;;5110663;28;20020;-80
2021/06/19 09:49:12;;;;;;;17.10;13.35;;;;;;;;;;5118103;28;20031;-81
2021/06/19 09:51:44;;;;;;;13.70;10.13;;;;;;;;;;5114522;28;20477;-81
2021/06/19 09:54:10;;;;;;;11.65;8.93;;;;;;;;;;5111777;28;20370;-81
2021/06/19 09:56:45;;;;;;;19.08;12.02;;;;;;;;;;5123504;28;20027;-82
2021/06/19 09:59:24;;;;;;;10.45;8.48;;;;;;;;;;5120678;28;20446;-82
2021/06/19 10:01:50;;;;;;;16.45;7.70;;;;;;;;;;5113471;28;20534;-82
2021/06/19 10:04:19;;;;;;;11.68;7.85;;;;;;;;;;5111872;27;20039;-82
2021/06/19 10:06:46;;;;;;;9.80;8.70;;;;;;;;;;5114799;27;20020;-82
2021/06/19 10:09:14;;;;;;;8.55;7.50;;;;;;;;;;5130570;27;20047;-81
2021/06/19 10:11:40;;;;;;;8.75;7.95;;;;;;;;;;5125162;27;20028;-81
2021/06/19 10:14:09;;;;;;;12.57;10.20;;;;;;;;;;5114057;27;20410;-82
2021/06/19 10:16:40;;;;;;;9.85;8.70;;;;;;;;;;5114607;27;20099;-81
2021/06/19 10:19:06;;;;;;;8.20;6.40;;;;;;;;;;5114039;27;20035;-81
2021/06/19 10:21:32;;;;;;;10.40;7.05;;;;;;;;;;5115509;27;20436;-81
2021/06/19 10:23:58;;;;;;;10.20;7.88;;;;;;;;;;5118371;27;20043;-81
2021/06/19 10:26:24;;;;;;;10.77;7.53;;;;;;;;;;5125000;27;20083;-81
2021/06/19 10:28:52;;;;;;;9.75;7.70;;;;;;;;;;5114320;28;20786;-81
2021/06/19 10:31:19;;;;;;;9.25;7.18;;;;;;;;;;5131803;27;20030;-81
2021/06/19 10:33:45;;;;;;;9.30;7.28;;;;;;;;;;5124090;27;20047;-82
2021/06/19 10:36:12;;;;;;;45.63;24.52;;;;;;;;;;5108601;28;20027;-81
2021/06/19 10:38:38;;;;;;;;;;;;;;;;;;5125378;27;20031;-81
2021/06/19 10:41:04;;;;;;;14.77;10.30;;;;;;;;;;5122394;27;19914;-81
2021/06/19 10:43:31;;;;;;;10.87;6.17;;;;;;;;;;5122612;27;20507;-81
2021/06/19 10:46:20;;;;;;;10.23;6.80;;;;;;;;;;5120631;27;20016;-80
2021/06/19 10:48:46;;;;;;;11.95;7.80;;;;;;;;;;5116419;27;20084;-81
2021/06/19 10:51:20;;;;;;;8.00;6.75;;;;;;;;;;5123262;27;20023;-81
2021/06/19 10:54:04;;;;;;;9.13;7.30;;;;;;;;;;5124720;27;20065;-82
2021/06/19 10:56:52;;;;;;;13.23;7.90;;;;;;;;;;5128802;28;20106;-82
2021/06/19 10:59:22;;;;;;;14.52;8.30;;;;;;;;;;5126949;28;20059;-82
2021/06/19 11:01:48;;;;;;;9.18;7.15;;;;;;;;;;5128633;28;20022;-82
2021/06/19 11:04:33;;;;;;;12.85;7.78;;;;;;;;;;5124183;28;20039;-79
2021/06/19 11:06:59;;;;;;;14.68;8.23;;;;;;;;;;5123359;28;20031;-82
2021/06/19 11:09:44;;;;;;;17.48;9.43;;;;;;;;;;5121043;28;20109;-82
2021/06/19 11:12:29;;;;;;;17.42;8.55;;;;;;;;;;5115417;28;20023;-81
2021/06/19 11:14:56;;;;;;;13.88;8.13;;;;;;;;;;5123798;28;20039;-84
2021/06/19 11:17:26;;;;;;;14.77;7.72;;;;;;;;;;5119648;28;20099;-82
2021/06/19 11:19:57;;;;;;;14.02;8.10;;;;;;;;;;5121399;28;20028;-82
2021/06/19 11:22:24;;;;;;;8.93;7.53;;;;;;;;;;5125463;28;20029;-82
2021/06/19 11:25:09;;;;;;;13.18;7.15;;;;;;;;;;5127594;28;20024;-80
2021/06/19 11:27:48;;;;;;;11.00;7.28;;;;;;;;;;5116095;28;20016;-82
2021/06/19 11:30:32;;;;;;;10.13;7.15;;;;;;;;;;5125891;28;20470;-82
2021/06/19 11:33:16;;;;;;;12.63;8.43;;;;;;;;;;5112599;28;20363;-82
2021/06/19 11:35:46;;;;;;;7.22;6.53;;;;;;;;;;5110609;28;20050;-81
2021/06/19 11:38:13;;;;;;;10.82;6.70;;;;;;;;;;5115445;28;20094;-81
2021/06/19 11:40:39;;;;;;;8.93;6.93;;;;;;;;;;5120508;28;20381;-80
2021/06/19 11:43:06;;;;;;;8.40;6.32;;;;;;;;;;5122289;28;20019;-80
2021/06/19 11:45:31;;;;;;;;;;;;;;;;;;5112697;28;20038;-81
2021/06/19 11:48:03;;;;;;;10.35;7.05;;;;;;;;;;5118575;28;19907;-79
2021/06/19 11:50:33;;;;;;;10.18;7.95;;;;;;;;;;5102597;28;20012;-80
2021/06/19 11:53:18;;;;;;;7.78;6.80;;;;;;;;;;5110042;27;79916;-82
2021/06/19 11:55:44;;;;;;;8.70;7.80;;;;;;;;;;5113206;27;20065;-83
2021/06/19 11:58:10;;;;;;;12.88;8.07;;;;;;;;;;5118978;27;20120;-84
2021/06/19 12:00:51;;;;;;;6.75;6.15;;;;;;;;;;5115797;27;20015;-84
2021/06/19 12:03:24;;;;;;;8.25;6.07;;;;;;;;;;5096467;27;20043;-84
2021/06/19 12:05:50;;;;;;;9.82;5.90;;;;;;;;;;5129079;27;20385;-84
2021/06/19 12:08:24;;;;;;;8.35;6.30;;;;;;;;;;5109702;27;20042;-85
2021/06/19 12:10:50;;;;;;;6.30;5.70;;;;;;;;;;5116925;27;20103;-84
2021/06/19 12:13:16;;;;;;;8.52;5.97;;;;;;;;;;5123057;27;20092;-85
2021/06/19 12:15:50;;;;;;;12.05;7.53;;;;;;;;;;5115914;27;20016;-83
2021/06/19 12:18:17;;;;;;;6.90;5.95;;;;;;;;;;5124204;27;20043;-82
2021/06/19 12:20:43;;;;;;;10.90;6.55;;;;;;;;;;5097632;27;20172;-84
2021/06/19 12:23:16;;;;;;;6.80;5.30;;;;;;;;;;5113862;27;20444;-82
2021/06/19 12:25:42;;;;;;;10.10;6.95;;;;;;;;;;5112504;27;20103;-82
2021/06/19 12:28:19;;;;;;;10.50;6.40;;;;;;;;;;5119010;27;20019;-83
2021/06/19 12:30:55;;;;;;;15.18;6.43;;;;;;;;;;5127376;27;20107;-83
2021/06/19 12:33:25;;;;;;;8.38;6.80;;;;;;;;;;5113383;27;20512;-83
2021/06/19 12:35:51;;;;;;;10.75;6.75;;;;;;;;;;5114698;27;20258;-84
2021/06/19 12:38:21;;;;;;;6.97;6.28;;;;;;;;;;5119861;27;20045;-84
2021/06/19 12:40:47;;;;;;;12.02;5.95;;;;;;;;;;5112862;27;20046;-85
2021/06/19 12:43:14;;;;;;;9.05;6.32;;;;;;;;;;5123526;27;20027;-86
2021/06/19 12:45:45;;;;;;;8.63;6.47;;;;;;;;;;5121994;27;20035;-85
2021/06/19 12:48:21;;;;;;;7.97;6.57;;;;;;;;;;5121169;27;20073;-84
2021/06/19 12:50:48;;;;;;;11.73;6.93;;;;;;;;;;5110782;28;20031;-83
2021/06/19 12:53:14;;;;;;;20.33;7.45;;;;;;;;;;5110125;28;20375;-84
2021/06/19 12:55:45;;;;;;;10.73;6.43;;;;;;;;;;5111719;27;20031;-83
2021/06/19 12:58:12;;;;;;;9.85;6.90;;;;;;;;;;5111918;27;20098;-83
2021/06/19 13:00:43;;;;;;;12.45;6.97;;;;;;;;;;5127220;27;20031;-84
2021/06/19 13:03:10;;;;;;;7.70;6.63;;;;;;;;;;5109822;28;20034;-84
2021/06/19 13:05:49;;;;;;;8.40;6.30;;;;;;;;;;5111539;28;20027;-81
2021/06/19 13:08:16;;;;;;;8.48;6.60;;;;;;;;;;5125426;27;20027;-81
2021/06/19 13:10:42;;;;;;;7.25;6.20;;;;;;;;;;5110935;28;20047;-81
2021/06/19 13:13:08;;;;;;;10.13;6.88;;;;;;;;;;5117015;27;20040;-81
2021/06/19 13:15:35;;;;;;;13.38;6.55;;;;;;;;;;5111102;27;20434;-81
2021/06/19 13:18:00;;;;;;;11.45;7.22;;;;;;;;;;5111529;27;20019;-80
2021/06/19 13:20:26;;;;;;;7.10;6.35;;;;;;;;;;5117974;27;20105;-80
2021/06/19 13:23:06;;;;;;;10.43;6.32;;;;;;;;;;5122506;27;20470;-81
2021/06/19 13:25:51;;;;;;;8.25;6.40;;;;;;;;;;5110532;27;20020;-78
2021/06/19 13:28:34;;;;;;;11.40;6.13;;;;;;;;;;5110885;28;20517;-80
2021/06/19 13:31:11;;;;;;;10.00;6.60;;;;;;;;;;5110769;28;20027;-80
2021/06/19 13:33:41;;;;;;;7.68;6.20;;;;;;;;;;5126112;27;20035;-81
2021/06/19 13:36:16;;;;;;;11.10;6.32;;;;;;;;;;5109888;28;20477;-80
2021/06/19 13:39:09;;;;;;;11.50;7.00;;;;;;;;;;5110675;28;20032;-79
2021/06/19 13:41:39;;;;;;;7.13;6.43;;;;;;;;;;5082133;28;20040;-80
2021/06/19 13:44:06;;;;;;;10.90;6.80;;;;;;;;;;5109835;28;20478;-80
2021/06/19 13:46:32;;;;;;;10.80;6.28;;;;;;;;;;5098085;28;20021;-80
2021/06/19 13:48:59;;;;;;;8.35;5.78;;;;;;;;;;5112012;28;20130;-80
2021/06/19 13:51:25;;;;;;;13.13;7.88;;;;;;;;;;5130563;28;20064;-79
2021/06/19 13:53:51;;;;;;;10.00;7.25;;;;;;;;;;5093670;28;20050;-79
2021/06/19 13:56:18;;;;;;;8.13;6.50;;;;;;;;;;5109963;28;20023;-81
2021/06/19 13:58:44;;;;;;;;;;;;;;;;;;5092896;28;20031;-79
2021/06/19 14:01:12;;;;;;;;;;;;;;;;;;5119082;28;19923;-81
2021/06/19 14:03:39;;;;;;;10.82;6.10;;;;;;;;;;5109660;28;20459;-79
2021/06/19 14:06:10;;;;;;;6.43;5.60;;;;;;;;;;5110066;28;20032;-80
2021/06/19 14:08:36;;;;;;;6.93;5.65;;;;;;;;;;5110235;28;20024;-80
2021/06/19 14:11:02;;;;;;;9.02;5.22;;;;;;;;;;5108062;28;20043;-79
2021/06/19 14:13:28;;;;;;;8.32;4.85;;;;;;;;;;5099634;28;20047;-79
2021/06/19 14:15:54;;;;;;;11.85;7.03;;;;;;;;;;5126337;28;20471;-80
2021/06/19 14:18:20;;;;;;;7.25;5.15;;;;;;;;;;5125793;28;20119;-77
2021/06/19 14:20:46;;;;;;;8.13;5.30;;;;;;;;;;5110838;28;20020;-79
2021/06/19 14:23:12;;;;;;;7.63;5.57;;;;;;;;;;5111885;28;20751;-80
2021/06/19 14:25:38;;;;;;;15.50;5.40;;;;;;;;;;5115931;28;20193;-81
2021/06/19 14:28:07;;;;;;;11.50;5.82;;;;;;;;;;5110765;28;20046;-80
2021/06/19 14:30:33;;;;;;;9.52;5.93;;;;;;;;;;5115110;28;20389;-80
2021/06/19 14:32:59;;;;;;;7.88;5.40;;;;;;;;;;5121236;28;20400;-80
2021/06/19 14:35:25;;;;;;;12.82;5.80;;;;;;;;;;5121905;28;20023;-80
2021/06/19 14:37:51;;;;;;;10.43;5.35;;;;;;;;;;5120636;28;20378;-80
2021/06/19 14:40:17;;;;;;;15.32;5.35;;;;;;;;;;5118460;28;20092;-81
2021/06/19 14:42:43;;;;;;;8.48;5.50;;;;;;;;;;5109029;28;20453;-80